Time;durP1;ratioP1;P1;durP2;ratioP2;P2;SDS_P1;SDS_P2;PMS_P1;PMS_P2;Temp;Humidity;BMP_temperature;BMP_pressure;BME280_temperature;BME280_humidity;BME280_pressure;Samples;Min_cycle;Max_cycle;Signal;HPM_P1;HPM_P2
2023/08/19 00:00:56;;;;;;;25.10;14.28;;;;;;;29.03;49.80;100378.48;1678965;85;21361;-75
2023/08/19 00:04:04;;;;;;;23.47;13.85;;;;;;;28.96;49.90;100379.38;1650074;87;21334;-75
2023/08/19 00:07:10;;;;;;;33.00;13.53;;;;;;;29.00;49.93;100370.62;1679299;85;21286;-80
2023/08/19 00:10:10;;;;;;;21.05;13.10;;;;;;;28.77;50.53;100369.41;1649304;87;21257;-75
2023/08/19 00:13:16;;;;;;;28.73;13.53;;;;;;;28.64;50.89;100373.73;1649315;87;21343;-75
2023/08/19 00:16:23;;;;;;;20.75;13.38;;;;;;;28.72;50.91;100373.10;1648671;87;21378;-76
2023/08/19 00:19:28;;;;;;;23.10;12.78;;;;;;;28.80;50.72;100373.61;1623976;88;21340;-81
2023/08/19 00:22:36;;;;;;;21.17;12.85;;;;;;;28.72;50.97;100375.08;1650748;87;21362;-75
2023/08/19 00:25:41;;;;;;;31.15;12.93;;;;;;;28.94;50.52;100376.00;1648101;87;21969;-81
2023/08/19 00:28:46;;;;;;;23.67;13.40;;;;;;;28.50;51.56;100371.33;1679359;85;21291;-81
2023/08/19 00:31:52;;;;;;;20.23;12.70;;;;;;;28.63;51.48;100367.00;1649791;86;21875;-75
2023/08/19 00:35:00;;;;;;;21.85;12.73;;;;;;;28.92;50.70;100365.02;1679468;85;21845;-74
2023/08/19 00:38:08;;;;;;;25.52;12.88;;;;;;;28.99;50.37;100364.72;1650368;86;21322;-80
2023/08/19 00:41:13;;;;;;;28.30;12.47;;;;;;;28.94;50.42;100360.52;1679221;85;21326;-81
2023/08/19 00:44:18;;;;;;;23.57;12.18;;;;;;;28.88;50.60;100359.71;1649254;87;21366;-75
2023/08/19 00:47:23;;;;;;;33.35;13.18;;;;;;;29.02;50.21;100364.94;1679165;85;21322;-75
2023/08/19 00:50:31;;;;;;;31.68;12.43;;;;;;;28.86;50.57;100358.34;1650621;87;21314;-75
2023/08/19 00:53:37;;;;;;;23.30;12.88;;;;;;;28.82;50.68;100355.28;1679378;85;21287;-74
2023/08/19 00:56:43;;;;;;;25.60;12.25;;;;;;;28.81;50.66;100350.80;1649873;87;21337;-75
2023/08/19 00:59:49;;;;;;;28.07;13.35;;;;;;;28.71;50.94;100353.14;1658415;85;21294;-81
2023/08/19 01:02:55;;;;;;;26.00;13.58;;;;;;;28.69;50.89;100349.77;1649453;86;21317;-75
2023/08/19 01:06:37;;;;;;;21.97;13.58;;;;;;;28.85;50.58;100348.23;1679452;85;21318;-81
2023/08/19 01:09:56;;;;;;;28.77;12.63;;;;;;;28.74;50.87;100337.05;1650518;87;21902;-78
2023/08/19 01:13:20;;;;;;;26.23;13.10;;;;;;;28.73;50.87;100343.81;1679505;85;22241;-81
2023/08/19 01:16:29;;;;;;;21.52;11.73;;;;;;;28.70;51.03;100341.62;1650232;87;21842;-73
2023/08/19 01:19:39;;;;;;;25.43;12.13;;;;;;;28.52;51.46;100343.19;1679576;85;21323;-73
2023/08/19 01:23:01;;;;;;;20.97;12.70;;;;;;;28.69;51.11;100345.55;1650662;87;21341;-74
2023/08/19 01:26:06;;;;;;;26.07;12.35;;;;;;;28.39;51.93;100348.64;1674610;85;21871;-79
2023/08/19 01:29:13;;;;;;;33.80;12.70;;;;;;;28.37;52.12;100339.64;1650463;87;21309;-73
2023/08/19 01:32:19;;;;;;;24.50;12.65;;;;;;;28.53;51.57;100341.20;1678534;85;21351;-73
2023/08/19 01:35:25;;;;;;;20.57;12.13;;;;;;;28.68;51.22;100345.84;1650247;87;21329;-77
2023/08/19 01:38:52;;;;;;;31.87;12.58;;;;;;;28.74;51.01;100344.08;1678431;85;21910;-81
2023/08/19 01:41:57;;;;;;;22.13;12.35;;;;;;;28.60;51.30;100342.26;1649807;87;21353;-79
2023/08/19 01:45:03;;;;;;;22.87;12.78;;;;;;;28.68;51.08;100352.31;1679116;85;21300;-74
2023/08/19 01:48:10;;;;;;;24.12;12.53;;;;;;;28.84;50.64;100347.36;1649612;86;21914;-75
2023/08/19 01:51:15;;;;;;;27.17;12.78;;;;;;;28.62;51.14;100347.88;1679273;85;21314;-80
2023/08/19 01:54:22;;;;;;;26.62;13.18;;;;;;;28.35;51.94;100351.77;1650507;87;21341;-80
2023/08/19 01:57:27;;;;;;;21.57;12.13;;;;;;;28.49;51.53;100345.74;1679611;85;21314;-75
2023/08/19 02:00:32;;;;;;;26.68;12.28;;;;;;;28.46;51.69;100344.91;1650589;87;21314;-75
2023/08/19 02:03:38;;;;;;;16.57;11.63;;;;;;;28.44;51.72;100345.78;1679576;85;21319;-81
2023/08/19 02:06:43;;;;;;;19.48;12.58;;;;;;;28.26;52.24;100352.92;1650601;87;21949;-75
2023/08/19 02:09:49;;;;;;;28.25;13.72;;;;;;;28.13;52.51;100351.60;1679354;85;21302;-81
2023/08/19 02:12:55;;;;;;;23.22;12.37;;;;;;;28.23;52.33;100352.96;1651426;87;21349;-81
2023/08/19 02:16:01;;;;;;;22.60;12.78;;;;;;;28.35;52.07;100351.20;1680550;85;21701;-75
2023/08/19 02:19:08;;;;;;;20.85;13.98;;;;;;;28.27;52.15;100348.41;1651146;86;21361;-75
2023/08/19 02:22:14;;;;;;;22.30;13.88;;;;;;;28.24;52.33;100356.61;1680544;85;21311;-75
2023/08/19 02:25:19;;;;;;;29.67;14.00;;;;;;;28.20;52.43;100354.94;1651561;87;21307;-75
2023/08/19 02:28:25;;;;;;;22.60;13.35;;;;;;;28.31;52.19;100352.87;1680695;85;21319;-80
2023/08/19 02:31:31;;;;;;;30.08;13.85;;;;;;;28.41;51.86;100352.83;1651805;87;21891;-81
2023/08/19 02:34:37;;;;;;;28.45;13.88;;;;;;;28.40;51.86;100350.31;1680810;85;21908;-80
2023/08/19 02:37:44;;;;;;;34.63;12.50;;;;;;;28.23;52.23;100355.77;1650506;87;21341;-75
2023/08/19 02:40:58;;;;;;;21.20;13.10;;;;;;;28.27;52.12;100358.24;1680314;85;21777;-81
2023/08/19 02:44:04;;;;;;;19.45;12.20;;;;;;;28.33;51.98;100361.88;1648639;86;21322;-75
2023/08/19 02:47:09;;;;;;;22.80;12.90;;;;;;;28.52;51.41;100349.38;1679647;85;21366;-80
2023/08/19 02:50:15;;;;;;;20.77;13.05;;;;;;;28.37;51.78;100352.30;1650576;86;21380;-80
2023/08/19 02:53:21;;;;;;;26.15;13.48;;;;;;;28.38;51.77;100361.03;1680455;85;21655;-81
2023/08/19 02:56:26;;;;;;;16.82;12.33;;;;;;;28.41;51.66;100357.61;1651007;87;21349;-81
2023/08/19 02:59:31;;;;;;;23.32;12.88;;;;;;;28.43;51.62;100356.77;1679455;85;21283;-75
2023/08/19 03:02:36;;;;;;;22.02;12.60;;;;;;;28.55;51.47;100355.80;1650587;87;21373;-75
2023/08/19 03:05:46;;;;;;;19.45;11.90;;;;;;;28.71;50.97;100364.39;1680731;85;21323;-75
2023/08/19 03:08:54;;;;;;;24.80;13.08;;;;;;;28.73;50.96;100360.70;1651663;87;21341;-76
2023/08/19 03:12:01;;;;;;;22.90;12.25;;;;;;;28.72;50.98;100368.88;1680660;85;21307;-81
2023/08/19 03:15:07;;;;;;;22.95;12.47;;;;;;;28.91;50.55;100361.94;1648246;86;21871;-75
2023/08/19 03:18:14;;;;;;;25.80;12.55;;;;;;;29.22;49.87;100361.09;1680633;85;21299;-76
2023/08/19 03:21:21;;;;;;;22.00;13.40;;;;;;;29.47;49.23;100366.14;1651714;86;21369;-81
2023/08/19 03:24:28;;;;;;;20.05;11.95;;;;;;;29.41;49.33;100367.35;1680452;85;21307;-81
2023/08/19 03:27:34;;;;;;;24.27;11.80;;;;;;;29.64;48.95;100376.92;1650409;87;21372;-75
2023/08/19 03:30:40;;;;;;;22.87;11.60;;;;;;;29.67;48.79;100369.28;1680384;85;21296;-81
2023/08/19 03:33:48;;;;;;;21.00;12.03;;;;;;;29.81;48.50;100369.38;1651551;87;21890;-80
2023/08/19 03:36:54;;;;;;;25.65;11.68;;;;;;;29.83;48.52;100372.72;1679903;85;21350;-75
2023/08/19 03:39:59;;;;;;;20.00;11.08;;;;;;;29.92;48.33;100363.86;1651587;87;21847;-81
2023/08/19 03:43:04;;;;;;;29.10;11.05;;;;;;;29.93;48.38;100368.38;1679639;85;21327;-81
2023/08/19 03:46:12;;;;;;;20.65;11.55;;;;;;;30.09;48.03;100366.16;1651465;87;21345;-75
2023/08/19 03:49:17;;;;;;;20.97;12.63;;;;;;;30.07;48.15;100363.66;1680099;85;21315;-79
2023/08/19 03:52:23;;;;;;;18.05;11.10;;;;;;;30.14;47.90;100361.30;1650738;87;21357;-81
2023/08/19 03:55:31;;;;;;;21.30;11.88;;;;;;;30.24;47.81;100361.14;1680692;85;21735;-81
2023/08/19 03:58:38;;;;;;;23.62;12.50;;;;;;;30.34;47.62;100359.30;1651583;87;21333;-82
2023/08/19 04:01:43;;;;;;;20.40;11.95;;;;;;;30.55;47.23;100353.02;1679017;85;21868;-75
2023/08/19 04:05:07;;;;;;;18.52;12.15;;;;;;;30.75;46.82;100351.84;1650144;87;21997;-75
2023/08/19 04:08:13;;;;;;;25.82;12.25;;;;;;;30.73;46.67;100352.74;1680473;85;21275;-80
2023/08/19 04:11:19;;;;;;;18.00;11.33;;;;;;;30.74;46.72;100348.77;1651824;87;21356;-75
2023/08/19 04:14:25;;;;;;;23.30;12.07;;;;;;;30.55;46.98;100353.59;1680588;85;21864;-81
2023/08/19 04:17:30;;;;;;;21.35;10.60;;;;;;;30.97;46.19;100360.22;1651717;87;21938;-81
2023/08/19 04:20:37;;;;;;;20.82;9.58;;;;;;;31.19;45.76;100351.84;1679426;85;21343;-75
2023/08/19 04:23:44;;;;;;;16.65;10.03;;;;;;;31.32;45.55;100350.22;1650191;87;21319;-74
2023/08/19 04:26:51;;;;;;;20.50;10.70;;;;;;;31.47;45.29;100353.30;1679952;85;21275;-75
2023/08/19 04:29:57;;;;;;;20.05;10.25;;;;;;;31.57;45.19;100355.90;1651030;87;21353;-75
2023/08/19 04:33:04;;;;;;;20.48;9.00;;;;;;;31.77;44.55;100349.82;1680653;85;21768;-81
2023/08/19 04:36:10;;;;;;;17.65;9.60;;;;;;;31.63;44.84;100355.23;1651684;87;21314;-75
2023/08/19 04:39:16;;;;;;;16.40;8.98;;;;;;;31.77;44.68;100358.30;1680767;85;21897;-75
2023/08/19 04:42:24;;;;;;;15.13;8.55;;;;;;;31.99;44.15;100352.45;1651906;87;21314;-80
2023/08/19 04:45:32;;;;;;;17.95;9.15;;;;;;;32.19;43.75;100351.16;1680837;85;21287;-80
2023/08/19 04:48:41;;;;;;;15.70;8.90;;;;;;;32.42;43.33;100345.80;1652021;87;21314;-80
2023/08/19 04:51:47;;;;;;;20.60;8.80;;;;;;;32.33;43.55;100349.11;1680645;85;21820;-75
2023/08/19 04:54:52;;;;;;;20.32;8.35;;;;;;;32.64;43.04;100353.42;1651276;87;21346;-80
2023/08/19 04:57:58;;;;;;;17.95;8.28;;;;;;;32.87;42.22;100356.23;1680559;85;21235;-81
2023/08/19 05:01:03;;;;;;;16.75;8.23;;;;;;;32.67;42.15;100359.03;1650669;87;21946;-81
2023/08/19 05:04:11;;;;;;;28.23;8.43;;;;;;;32.85;42.13;100352.91;1680313;85;21272;-75
2023/08/19 05:07:17;;;;;;;15.30;7.97;;;;;;;32.82;42.00;100359.45;1651661;87;21313;-75
2023/08/19 05:10:24;;;;;;;21.02;8.13;;;;;;;32.86;42.34;100366.73;1680561;85;21318;-80
2023/08/19 05:13:30;;;;;;;21.75;9.05;;;;;;;32.98;41.96;100357.65;1650322;87;21245;-75
2023/08/19 05:16:36;;;;;;;11.55;7.70;;;;;;;32.92;42.04;100364.04;1677991;85;21889;-81
2023/08/19 05:19:42;;;;;;;16.42;8.00;;;;;;;33.16;42.09;100362.24;1624218;88;21629;-80
2023/08/19 05:22:49;;;;;;;12.13;6.92;;;;;;;33.33;41.75;100360.91;1652051;87;21889;-81
2023/08/19 05:25:55;;;;;;;13.68;6.20;;;;;;;33.56;41.46;100362.27;1623965;88;21356;-75
2023/08/19 05:29:02;;;;;;;11.57;6.47;;;;;;;33.50;40.91;100365.84;1670218;85;21631;-75
2023/08/19 05:32:07;;;;;;;13.55;6.35;;;;;;;33.39;40.97;100368.67;1649361;87;21333;-80
2023/08/19 05:35:14;;;;;;;11.93;6.60;;;;;;;33.36;40.75;100360.84;1679411;85;21803;-79
2023/08/19 05:38:19;;;;;;;17.60;6.33;;;;;;;33.50;40.31;100366.41;1650288;86;21349;-74
2023/08/19 05:41:24;;;;;;;11.48;5.90;;;;;;;33.71;40.26;100361.80;1679146;85;21331;-81
2023/08/19 05:44:30;;;;;;;15.32;6.10;;;;;;;33.89;39.53;100372.61;1651525;86;21323;-80
2023/08/19 05:47:35;;;;;;;9.73;5.87;;;;;;;34.18;39.12;100374.83;1625025;88;21868;-80
2023/08/19 05:50:41;;;;;;;11.38;5.55;;;;;;;34.36;39.18;100377.69;1635817;87;21361;-75
2023/08/19 05:53:47;;;;;;;15.85;6.33;;;;;;;34.45;38.58;100384.20;1634140;87;21373;-80
2023/08/19 05:56:53;;;;;;;13.68;5.35;;;;;;;34.52;38.06;100379.69;1652767;87;21950;-79
2023/08/19 05:59:58;;;;;;;14.93;6.00;;;;;;;34.68;38.00;100382.87;1652707;87;21305;-74
2023/08/19 06:03:04;;;;;;;9.13;5.12;;;;;;;34.74;37.23;100373.58;1652570;87;21304;-75
2023/08/19 06:06:12;;;;;;;16.35;4.97;;;;;;;34.94;36.75;100381.97;1652428;87;21350;-81
2023/08/19 06:09:17;;;;;;;10.68;5.58;;;;;;;35.27;36.17;100396.44;1652810;87;21341;-80
2023/08/19 06:12:22;;;;;;;13.95;4.90;;;;;;;35.26;36.64;100392.77;1651878;87;21309;-80
2023/08/19 06:15:27;;;;;;;8.53;4.95;;;;;;;35.86;36.10;100392.84;1652944;87;21301;-80
2023/08/19 06:18:33;;;;;;;10.10;4.72;;;;;;;36.04;33.88;100395.82;1653074;87;21298;-81
2023/08/19 06:21:38;;;;;;;5.85;4.33;;;;;;;36.04;33.88;100395.82;1652484;87;21373;-75
2023/08/19 06:24:46;;;;;;;11.38;4.37;;;;;;;36.31;33.74;100400.98;1652714;87;21345;-81
2023/08/19 06:27:52;;;;;;;8.23;3.83;;;;;;;35.99;34.55;100400.30;1651457;87;22020;-81
2023/08/19 06:30:57;;;;;;;10.32;4.17;;;;;;;35.87;33.82;100393.91;1651434;87;21357;-81
2023/08/19 06:34:03;;;;;;;7.72;4.50;;;;;;;36.30;33.68;100402.16;1652523;87;21321;-76
2023/08/19 06:37:11;;;;;;;9.30;3.67;;;;;;;36.30;33.68;100402.16;1651940;87;21348;-81
2023/08/19 06:40:19;;;;;;;12.25;4.33;;;;;;;36.31;33.04;100397.30;1652620;87;21306;-75
2023/08/19 06:43:26;;;;;;;13.62;5.45;;;;;;;36.41;33.19;100401.14;1652815;87;21309;-81
2023/08/19 06:46:32;;;;;;;9.68;4.08;;;;;;;36.45;32.93;100396.45;1654169;85;21890;-76
2023/08/19 06:49:38;;;;;;;9.53;4.00;;;;;;;36.47;33.25;100396.95;1654687;86;21306;-77
2023/08/19 06:52:44;;;;;;;6.70;3.45;;;;;;;36.77;31.79;100399.09;1656762;86;21316;-80
2023/08/19 06:55:55;;;;;;;11.48;5.15;;;;;;;36.90;31.82;100394.86;1654615;86;21704;-81
2023/08/19 06:59:35;;;;;;;7.22;4.22;;;;;;;37.17;32.03;100394.26;1656810;86;21301;-81
2023/08/19 07:02:43;;;;;;;11.33;3.90;;;;;;;37.47;31.49;100395.50;1654907;86;21353;-76
2023/08/19 07:05:50;;;;;;;12.90;4.30;;;;;;;37.41;31.75;100397.77;1657016;86;21313;-81
2023/08/19 07:08:58;;;;;;;7.35;3.77;;;;;;;37.74;31.08;100391.94;1654667;86;21943;-75
2023/08/19 07:12:05;;;;;;;7.42;3.70;;;;;;;37.88;30.02;100396.45;1656951;86;22001;-75
2023/08/19 07:15:12;;;;;;;6.37;3.40;;;;;;;37.83;30.15;100403.20;1654468;86;21605;-81
2023/08/19 07:18:18;;;;;;;8.70;3.52;;;;;;;37.75;30.35;100398.48;1656631;86;21297;-76
2023/08/19 07:21:24;;;;;;;10.53;3.25;;;;;;;37.83;30.06;100400.35;1654153;86;21345;-81
2023/08/19 07:24:31;;;;;;;8.00;3.60;;;;;;;37.98;29.99;100393.14;1655857;86;21352;-81
2023/08/19 07:27:37;;;;;;;6.25;3.77;;;;;;;37.85;30.14;100391.72;1653106;86;21369;-75
2023/08/19 07:30:42;;;;;;;11.15;4.00;;;;;;;37.67;29.96;100393.13;1655171;86;21321;-81
2023/08/19 07:33:48;;;;;;;12.10;3.77;;;;;;;37.83;30.14;100385.52;1653522;86;21883;-81
2023/08/19 07:36:56;;;;;;;12.07;4.00;;;;;;;37.94;29.59;100393.61;1656755;86;21336;-81
2023/08/19 07:40:06;;;;;;;10.82;3.50;;;;;;;37.80;29.67;100391.09;1653949;86;21364;-75
2023/08/19 07:43:11;;;;;;;12.17;3.60;;;;;;;37.89;29.11;100398.14;1656203;86;21293;-75
2023/08/19 07:46:18;;;;;;;10.88;4.10;;;;;;;37.87;29.45;100387.06;1654134;86;21766;-81
2023/08/19 07:49:23;;;;;;;8.30;3.47;;;;;;;37.85;29.75;100390.28;1640981;86;21975;-76
2023/08/19 07:52:30;;;;;;;12.03;3.87;;;;;;;38.08;29.44;100391.21;1655603;86;21230;-76
2023/08/19 07:55:36;;;;;;;9.95;3.60;;;;;;;38.21;30.05;100394.88;1671028;86;21339;-76
2023/08/19 07:58:42;;;;;;;10.90;3.08;;;;;;;38.48;29.50;100396.11;1644760;87;21328;-82
2023/08/19 08:01:48;;;;;;;7.80;2.83;;;;;;;38.34;28.68;100397.94;1670174;86;21324;-76
2023/08/19 08:04:56;;;;;;;9.08;3.17;;;;;;;38.32;27.40;100400.34;1656536;86;21297;-82
2023/08/19 08:08:03;;;;;;;4.85;2.90;;;;;;;37.97;28.98;100401.44;1671871;86;21809;-76
2023/08/19 08:11:07;;;;;;;6.45;2.95;;;;;;;38.38;27.02;100400.31;1644854;87;21373;-82
2023/08/19 08:14:13;;;;;;;9.65;2.45;;;;;;;38.10;27.56;100401.66;1670062;86;21373;-82
2023/08/19 08:17:19;;;;;;;7.30;2.87;;;;;;;38.40;27.05;100404.26;1655291;86;21237;-75
2023/08/19 08:20:25;;;;;;;10.93;3.37;;;;;;;38.56;27.55;100399.42;1670942;86;21649;-75
2023/08/19 08:23:31;;;;;;;11.60;3.42;;;;;;;38.49;26.98;100392.91;1643586;87;21332;-75
2023/08/19 08:26:38;;;;;;;5.62;2.20;;;;;;;38.47;26.40;100387.31;1668952;86;21375;-81
2023/08/19 08:29:45;;;;;;;6.45;2.30;;;;;;;38.48;25.87;100389.80;1655311;86;21316;-82
2023/08/19 08:32:51;;;;;;;8.88;2.90;;;;;;;38.47;26.14;100392.42;1672041;86;21313;-82
2023/08/19 08:36:00;;;;;;;4.47;2.58;;;;;;;38.70;26.10;100390.44;1644884;87;21941;-75
2023/08/19 08:39:05;;;;;;;5.55;2.47;;;;;;;38.53;25.92;100389.53;1670202;86;21296;-75
2023/08/19 08:42:12;;;;;;;12.07;2.70;;;;;;;38.64;25.91;100389.05;1656512;86;21339;-75
2023/08/19 08:45:18;;;;;;;4.30;2.67;;;;;;;38.73;26.13;100383.40;1671169;86;21308;-77
2023/08/19 08:48:25;;;;;;;4.03;1.95;;;;;;;38.83;24.90;100382.07;1642911;87;21261;-75
2023/08/19 08:51:31;;;;;;;3.70;2.22;;;;;;;39.04;24.13;100386.11;1638379;87;21766;-81
2023/08/19 08:54:38;;;;;;;7.33;2.30;;;;;;;39.04;23.56;100387.53;1650451;87;21959;-81
2023/08/19 08:57:44;;;;;;;10.13;2.10;;;;;;;39.11;24.62;100398.58;1602669;88;21921;-76
2023/08/19 09:00:49;;;;;;;7.20;2.75;;;;;;;38.88;24.72;100393.84;1651516;87;21662;-81
2023/08/19 09:03:55;;;;;;;6.40;2.67;;;;;;;39.07;24.34;100391.93;1646423;87;21902;-81
2023/08/19 09:07:18;;;;;;;6.70;2.37;;;;;;;38.94;25.17;100402.38;1678095;85;21338;-76
2023/08/19 09:10:25;;;;;;;8.08;2.72;;;;;;;38.96;24.71;100396.53;1650652;86;21325;-81
2023/08/19 09:13:30;;;;;;;10.55;2.22;;;;;;;39.22;24.91;100400.32;1678175;85;21358;-81
2023/08/19 09:16:37;;;;;;;10.20;2.80;;;;;;;40.57;24.04;100403.43;1648998;87;21979;-81
2023/08/19 09:19:43;;;;;;;13.88;3.22;;;;;;;39.80;24.40;100403.45;1679176;85;21900;-81
2023/08/19 09:22:51;;;;;;;12.98;3.35;;;;;;;39.78;24.61;100405.05;1649109;87;21344;-75
2023/08/19 09:25:57;;;;;;;15.05;3.15;;;;;;;39.89;25.04;100393.84;1679163;85;21315;-82
2023/08/19 09:29:04;;;;;;;8.45;2.92;;;;;;;39.00;26.17;100403.16;1650557;87;21306;-75
2023/08/19 09:32:11;;;;;;;11.90;3.22;;;;;;;39.08;25.27;100389.89;1678363;85;21342;-75
2023/08/19 09:35:18;;;;;;;8.08;2.80;;;;;;;38.90;26.31;100390.83;1649752;87;21364;-76
2023/08/19 09:38:28;;;;;;;5.78;3.00;;;;;;;38.89;25.27;100389.78;1679645;85;21295;-75
2023/08/19 09:41:34;;;;;;;15.32;3.42;;;;;;;39.06;26.14;100396.59;1650396;87;21910;-81
2023/08/19 09:44:40;;;;;;;7.47;3.58;;;;;;;38.69;26.02;100392.47;1679605;85;21283;-75
2023/08/19 09:47:56;;;;;;;9.35;3.37;;;;;;;38.89;26.23;100394.06;1650483;87;21334;-76
2023/08/19 09:51:02;;;;;;;10.90;3.40;;;;;;;38.76;26.89;100397.58;1674868;85;21304;-81
2023/08/19 09:54:18;;;;;;;8.35;3.10;;;;;;;38.56;27.57;100388.00;1643687;87;21360;-75
2023/08/19 09:57:22;;;;;;;9.08;3.30;;;;;;;38.85;26.84;100397.64;1669350;86;21363;-81
2023/08/19 10:00:28;;;;;;;7.42;3.27;;;;;;;38.89;25.89;100383.45;1655980;86;21671;-81
2023/08/19 10:03:34;;;;;;;9.63;3.67;;;;;;;39.02;26.19;100382.80;1670428;86;21233;-75
2023/08/19 10:06:40;;;;;;;7.95;3.50;;;;;;;39.08;26.25;100381.31;1643183;87;21339;-75
2023/08/19 10:09:46;;;;;;;10.93;3.00;;;;;;;39.20;26.56;100379.84;1669310;86;21857;-76
2023/08/19 10:12:55;;;;;;;9.40;3.17;;;;;;;38.93;26.67;100382.96;1654926;86;21329;-75
2023/08/19 10:16:04;;;;;;;14.13;3.50;;;;;;;38.94;26.62;100372.35;1669819;86;21303;-75
2023/08/19 10:19:11;;;;;;;8.60;3.20;;;;;;;38.81;25.71;100372.41;1643955;87;21313;-81
2023/08/19 10:22:19;;;;;;;5.15;3.05;;;;;;;39.05;26.25;100362.02;1610126;89;21387;-75
2023/08/19 10:25:26;;;;;;;11.40;2.95;;;;;;;39.10;26.24;100358.89;1628815;88;21309;-81
2023/08/19 10:28:35;;;;;;;9.53;2.72;;;;;;;39.24;26.25;100365.05;1643835;87;21350;-81
2023/08/19 10:31:42;;;;;;;10.43;3.58;;;;;;;39.34;25.44;100361.63;1650147;86;22408;-81
2023/08/19 10:34:53;;;;;;;10.03;2.87;;;;;;;39.51;24.91;100370.41;1669246;86;21375;-76
2023/08/19 10:37:58;;;;;;;8.50;3.67;;;;;;;39.55;24.78;100366.22;1655688;86;21317;-78
2023/08/19 10:41:09;;;;;;;10.20;2.83;;;;;;;39.52;25.68;100364.09;1670613;86;21314;-75
2023/08/19 10:44:24;;;;;;;7.92;3.00;;;;;;;39.44;25.16;100361.66;1643425;87;21349;-81
2023/08/19 10:47:27;;;;;;;16.65;2.83;;;;;;;39.98;24.45;100362.97;1669197;86;21388;-75
2023/08/19 10:50:37;;;;;;;12.93;2.65;;;;;;;39.95;24.43;100353.69;1656450;86;21320;-80
2023/08/19 10:53:43;;;;;;;7.90;3.17;;;;;;;40.16;23.96;100359.94;1680503;85;21272;-76
2023/08/19 10:57:11;;;;;;;5.67;2.90;;;;;;;39.46;24.53;100364.97;1647451;86;21298;-81
2023/08/19 11:00:17;;;;;;;8.53;3.08;;;;;;;39.86;23.31;100348.20;1680594;85;21317;-79
2023/08/19 11:03:23;;;;;;;6.58;2.55;;;;;;;40.11;23.86;100351.65;1651716;87;21350;-75
2023/08/19 11:06:35;;;;;;;13.28;3.00;;;;;;;40.05;24.05;100355.98;1680284;85;21705;-81
2023/08/19 11:09:37;;;;;;;12.47;2.85;;;;;;;39.77;24.43;100349.83;1632100;87;21317;-81
2023/08/19 11:12:42;;;;;;;6.22;2.70;;;;;;;40.07;23.46;100350.09;1680564;85;21280;-75
2023/08/19 11:15:51;;;;;;;6.72;2.50;;;;;;;40.05;23.55;100355.98;1651397;87;21345;-75
2023/08/19 11:18:57;;;;;;;14.05;2.75;;;;;;;40.00;22.60;100355.68;1680545;85;21295;-81
2023/08/19 11:22:04;;;;;;;9.60;2.50;;;;;;;39.97;22.50;100354.98;1650816;87;21337;-75
2023/08/19 11:25:11;;;;;;;8.88;2.42;;;;;;;39.97;22.26;100349.26;1680593;85;21327;-80
2023/08/19 11:28:18;;;;;;;4.75;2.30;;;;;;;39.96;21.20;100337.58;1651201;86;21919;-75
2023/08/19 11:31:24;;;;;;;9.08;2.30;;;;;;;39.68;20.98;100344.91;1659291;85;21354;-81
2023/08/19 11:34:29;;;;;;;6.10;1.82;;;;;;;39.39;20.60;100339.66;1651636;87;21863;-75
2023/08/19 11:37:36;;;;;;;8.78;2.72;;;;;;;39.62;20.24;100339.22;1658558;85;21855;-75
2023/08/19 11:40:43;;;;;;;5.12;2.40;;;;;;;39.57;19.85;100335.19;1651855;87;22250;-75
2023/08/19 11:43:57;;;;;;;4.87;1.70;;;;;;;39.56;20.59;100332.09;1679940;85;21918;-81
2023/08/19 11:47:02;;;;;;;5.60;2.25;;;;;;;39.38;20.27;100343.70;1650929;87;21388;-82
2023/08/19 11:50:10;;;;;;;6.75;2.00;;;;;;;39.69;19.81;100338.58;1680562;85;21332;-82
2023/08/19 11:53:16;;;;;;;8.37;2.27;;;;;;;39.53;19.96;100331.43;1647394;87;21359;-75
2023/08/19 11:56:21;;;;;;;7.22;2.02;;;;;;;39.64;20.27;100331.11;1643346;87;21638;-82
2023/08/19 11:59:38;;;;;;;8.73;2.30;;;;;;;39.66;20.18;100332.98;1670285;86;21332;-82
2023/08/19 12:02:44;;;;;;;5.35;2.15;;;;;;;39.81;20.70;100324.16;1656649;86;21222;-77
2023/08/19 12:05:50;;;;;;;4.92;1.95;;;;;;;40.11;20.89;100326.70;1671954;86;21312;-82
2023/08/19 12:08:56;;;;;;;6.70;2.00;;;;;;;40.16;20.72;100321.27;1644341;87;21317;-75
2023/08/19 12:12:08;;;;;;;4.70;1.92;;;;;;;40.20;21.05;100326.48;1670253;86;21324;-75
2023/08/19 12:15:14;;;;;;;11.10;2.42;;;;;;;40.32;20.63;100324.05;1656493;86;21723;-75
2023/08/19 12:18:23;;;;;;;8.83;2.50;;;;;;;40.20;20.42;100325.66;1672089;86;21304;-78
2023/08/19 12:21:29;;;;;;;5.12;2.10;;;;;;;39.98;20.75;100315.72;1644769;87;21328;-75
2023/08/19 12:24:34;;;;;;;7.35;2.30;;;;;;;40.11;20.81;100315.84;1670070;86;21304;-82
2023/08/19 12:27:41;;;;;;;11.50;2.85;;;;;;;40.29;20.89;100306.20;1656484;86;21884;-82
2023/08/19 12:30:47;;;;;;;8.35;2.47;;;;;;;39.93;21.14;100308.86;1670826;86;22242;-75
2023/08/19 12:33:53;;;;;;;7.75;2.20;;;;;;;39.86;21.07;100313.23;1644785;87;21285;-77
2023/08/19 12:36:58;;;;;;;8.50;2.47;;;;;;;39.81;21.19;100312.09;1670390;86;21368;-81
2023/08/19 12:40:04;;;;;;;9.25;2.67;;;;;;;39.99;20.92;100315.94;1656643;86;21376;-78
2023/08/19 12:43:10;;;;;;;9.10;2.40;;;;;;;39.87;21.28;100318.36;1671955;86;21280;-82
2023/08/19 12:46:17;;;;;;;6.17;2.40;;;;;;;39.56;21.88;100312.06;1643250;87;21372;-76
2023/08/19 12:49:24;;;;;;;3.80;1.98;;;;;;;39.72;21.12;100314.34;1670191;86;21284;-82
2023/08/19 12:52:30;;;;;;;7.25;2.72;;;;;;;39.67;21.13;100307.48;1655481;86;21700;-81
2023/08/19 12:55:36;;;;;;;10.75;2.60;;;;;;;39.39;21.71;100303.30;1679060;85;21338;-81
2023/08/19 12:58:44;;;;;;;8.43;2.60;;;;;;;39.69;21.18;100299.33;1651750;87;21346;-75
2023/08/19 13:01:51;;;;;;;8.45;2.72;;;;;;;39.45;21.79;100296.69;1680621;85;21299;-82
2023/08/19 13:04:57;;;;;;;4.92;2.47;;;;;;;39.77;21.48;100299.73;1651733;87;21278;-76
2023/08/19 13:08:04;;;;;;;17.73;2.58;;;;;;;39.81;21.49;100303.52;1679965;85;21275;-81
2023/08/19 13:11:09;;;;;;;5.72;2.52;;;;;;;40.04;21.99;100296.45;1650547;87;21384;-82
2023/08/19 13:14:15;;;;;;;10.53;2.50;;;;;;;40.07;21.00;100302.02;1680817;85;21294;-76
2023/08/19 13:17:22;;;;;;;7.15;3.05;;;;;;;40.05;21.50;100306.70;1650763;87;21934;-75
2023/08/19 13:20:29;;;;;;;14.83;2.65;;;;;;;39.82;21.81;100303.73;1679554;85;21315;-76
2023/08/19 13:23:35;;;;;;;13.95;2.47;;;;;;;39.92;21.60;100298.02;1651689;87;21333;-76
2023/08/19 13:26:42;;;;;;;7.37;2.33;;;;;;;39.95;21.39;100308.73;1680009;85;21324;-82
2023/08/19 13:29:48;;;;;;;6.75;2.35;;;;;;;40.04;21.55;100305.62;1651561;86;21309;-76
2023/08/19 13:32:55;;;;;;;8.73;2.70;;;;;;;39.94;21.46;100289.03;1679264;85;21880;-82
2023/08/19 13:36:00;;;;;;;7.87;2.37;;;;;;;39.67;21.13;100300.32;1650270;87;21309;-82
2023/08/19 13:39:06;;;;;;;4.85;2.20;;;;;;;39.52;21.78;100296.84;1679144;85;21879;-76
2023/08/19 13:42:15;;;;;;;9.33;2.60;;;;;;;39.65;21.98;100289.83;1650950;87;21365;-81
2023/08/19 13:45:22;;;;;;;15.58;3.02;;;;;;;39.62;22.25;100299.15;1680685;85;21315;-82
2023/08/19 13:48:28;;;;;;;6.67;2.62;;;;;;;39.41;21.93;100292.91;1651014;87;21312;-77
2023/08/19 13:51:33;;;;;;;7.17;2.50;;;;;;;39.54;21.88;100293.02;1678681;85;21288;-75
2023/08/19 13:54:39;;;;;;;14.07;2.83;;;;;;;39.39;22.25;100288.17;1649567;86;21434;-74
2023/08/19 13:57:47;;;;;;;11.38;2.87;;;;;;;39.23;22.42;100287.56;1676897;85;21842;-74
2023/08/19 14:00:54;;;;;;;28.20;3.90;;;;;;;38.96;23.19;100285.60;1649002;87;21327;-80
2023/08/19 14:04:00;;;;;;;10.10;2.62;;;;;;;39.05;23.14;100294.83;1654828;85;21294;-80
2023/08/19 14:07:05;;;;;;;8.50;2.90;;;;;;;38.85;23.49;100289.02;1638803;86;21271;-74
2023/08/19 14:10:12;;;;;;;9.83;2.87;;;;;;;38.64;23.55;100291.88;1635971;87;21338;-80
2023/08/19 14:13:18;;;;;;;7.80;2.47;;;;;;;38.92;22.38;100291.25;1636125;87;21330;-81
2023/08/19 14:16:23;;;;;;;8.83;2.55;;;;;;;38.60;23.59;100291.78;1635812;87;21317;-81
2023/08/19 14:19:30;;;;;;;11.45;2.77;;;;;;;38.59;23.41;100284.41;1669055;86;21211;-81